Airfield :
LOGIN :

Register | Disclaimer

   EN    FR    IT 

 










Legend :    VFR   Marginal VFR   IFR   Intensive IFR   Very Intensive IFR
Visi :
Ceiling :
>= 8 km
>= 3000ft
5 to 8 km
1000 to 3000 ft
1500m to 5 km
500 to 1000 ft
800 to 1500m
200 to 500 ft
< 800m
< 200 ft
Symbols :   Thunderstorms  Fog  Heavy snow  Heavy precipitations  Wind > 20 kt
SIGMETs :     Misc.  Thunderstorms  Icing  Turbulence  Mountain Waves  Volcanic Ashes






- Airport Elevation : 36 ft
- IATA code : LTQ


LFAT - Le Touquet

CURRENT METAR :
  • 050630Z AUTO 12003KT 5000 BR NSC 14/14 Q1010 NOSIG

EXPIRED METARs :
  • 050600Z AUTO 14003KT 3900 BR NSC 13/13 Q1010
  • 050530Z AUTO 15003KT 3600 BR NSC 12/12 Q1010
  • 050500Z AUTO 16002KT 3500 BR NSC 12/12 Q1010
  • 050430Z AUTO 16002KT 3400 BR NSC 12/12 Q1010
  • 050400Z AUTO 16002KT 4400 BR NSC 12/12 Q1010

TAF TAF LFAT
Valid from the 05 at 06:00 until the 05 at 15:00 UTC


050500Z 0506/0515 15005KT 3000 BR NSC
BECMG 0506/0508 9999 NSW
BECMG 0512/0515 21010KT
ATIS : +33 3 21 06 62 84



MET'MAP, your aeronautical weather chart ! - Copyright ORBIFLY December 2007 - Disclaimer

ORBIFLY MET'MAP TEAM :

Programming & Development : Alexandra Zaïnal
Concept & original design : Baudouin d'Aumeries
Assistance for programming : Marc-Olivier Méhu
Technical & hardware support : Manuel Goepfert

Contact : metmap@orbifly.com




SOURCES & CREDITS :

   NOAA